createdAt,value
2023-01-19T00:00:33.003Z,99011.16
2023-01-19T00:03:37.187Z,99010.06
2023-01-19T00:06:39.876Z,99006.50
2023-01-19T00:09:42.808Z,99000.69
2023-01-19T00:12:45.458Z,99001.47
2023-01-19T00:15:48.095Z,99001.84
2023-01-19T00:18:52.699Z,98993.38
2023-01-19T00:21:55.591Z,98981.53
2023-01-19T00:24:58.167Z,98988.47
2023-01-19T00:28:02.012Z,98992.31
2023-01-19T00:31:04.838Z,99000.81
2023-01-19T00:34:09.055Z,98991.53
2023-01-19T00:37:11.972Z,98978.00
2023-01-19T00:40:14.835Z,98976.44
2023-01-19T00:43:17.541Z,98971.41
2023-01-19T00:46:20.173Z,98982.69
2023-01-19T00:49:24.151Z,98973.78
2023-01-19T00:52:26.833Z,98958.72
2023-01-19T00:55:31.155Z,98937.03
2023-01-19T00:58:33.774Z,98938.59
2023-01-19T01:01:45.544Z,98930.09
2023-01-19T01:04:54.864Z,98942.50
2023-01-19T01:07:57.586Z,98939.78
2023-01-19T01:11:00.550Z,98955.53
2023-01-19T01:14:03.263Z,98973.41
2023-01-19T01:17:06.191Z,98979.97
2023-01-19T01:20:16.412Z,98981.16
2023-01-19T01:23:22.907Z,98975.66
2023-01-19T01:26:27.113Z,98970.22
2023-01-19T01:29:30.399Z,98949.03
2023-01-19T01:32:32.975Z,98937.09
2023-01-19T01:35:37.323Z,98942.00
2023-01-19T01:38:40.375Z,98962.91
2023-01-19T01:41:42.996Z,98972.19
2023-01-19T01:44:50.119Z,98971.00
2023-01-19T01:47:55.455Z,98978.72
2023-01-19T01:51:22.924Z,98960.25
2023-01-19T01:54:29.345Z,98950.91
2023-01-19T01:57:32.284Z,98958.22
2023-01-19T02:00:53.725Z,98962.88
2023-01-19T02:03:57.604Z,98962.88
2023-01-19T02:07:20.405Z,98953.63
2023-01-19T02:10:42.256Z,98966.81
2023-01-19T02:13:46.996Z,98961.38
2023-01-19T02:16:49.739Z,98959.47
2023-01-19T02:19:52.541Z,98963.78
2023-01-19T02:23:03.796Z,98948.00
2023-01-19T02:26:10.234Z,98944.19
2023-01-19T02:29:16.282Z,98961.91
2023-01-19T02:32:18.982Z,98950.69
2023-01-19T02:35:23.223Z,98965.00
2023-01-19T02:38:28.241Z,98953.81
2023-01-19T02:41:38.899Z,98955.00
2023-01-19T02:44:45.593Z,98953.84
2023-01-19T02:47:50.654Z,98967.34
2023-01-19T02:50:57.337Z,98973.13
2023-01-19T02:54:20.203Z,98985.13
2023-01-19T02:57:47.923Z,98997.06
2023-01-19T03:00:59.282Z,99013.28
2023-01-19T03:04:11.722Z,99009.75
2023-01-19T03:07:20.990Z,99010.91
2023-01-19T03:10:32.492Z,98993.94
2023-01-19T03:13:44.931Z,98976.97
2023-01-19T03:16:53.485Z,98972.72
2023-01-19T03:19:58.104Z,98957.28
2023-01-19T03:23:03.844Z,98946.88
2023-01-19T03:26:10.786Z,98925.66
2023-01-19T03:29:18.429Z,98911.75
2023-01-19T03:32:29.720Z,98910.25
2023-01-19T03:35:35.684Z,98919.53
2023-01-19T03:38:40.680Z,98932.31
2023-01-19T03:41:44.418Z,98951.59
2023-01-19T03:44:51.233Z,98967.41
2023-01-19T03:47:54.977Z,98960.44
2023-01-19T03:50:58.089Z,98941.16
2023-01-19T03:54:01.400Z,98939.19
2023-01-19T03:57:04.526Z,98948.88
2023-01-19T04:00:10.584Z,98940.38
2023-01-19T04:03:16.496Z,98937.28
2023-01-19T04:06:19.916Z,98943.44
2023-01-19T04:09:22.563Z,98934.91
2023-01-19T04:12:25.323Z,98938.00
2023-01-19T04:15:29.930Z,98936.44
2023-01-19T04:18:34.847Z,98934.53
2023-01-19T04:21:37.567Z,98937.59
2023-01-19T04:24:40.179Z,98953.00
2023-01-19T04:27:42.812Z,98947.59
2023-01-19T04:30:50.154Z,98951.03
2023-01-19T04:33:52.844Z,98948.34
2023-01-19T04:36:56.018Z,98942.91
2023-01-19T04:39:58.624Z,98953.69
2023-01-19T04:43:01.758Z,98960.97
2023-01-19T04:46:06.759Z,98952.84
2023-01-19T04:49:09.637Z,98947.88
2023-01-19T04:52:12.473Z,98966.34
2023-01-19T04:55:15.410Z,98970.56
2023-01-19T04:58:17.972Z,98967.13
2023-01-19T05:01:22.200Z,98976.78
2023-01-19T05:04:25.679Z,98981.00
2023-01-19T05:07:28.401Z,98982.91
2023-01-19T05:10:31.268Z,98970.19
2023-01-19T05:13:33.968Z,98970.56
2023-01-19T05:16:37.985Z,98974.06
2023-01-19T05:19:40.604Z,98981.06
2023-01-19T05:22:43.209Z,98992.25
2023-01-19T05:25:45.933Z,99002.28
2023-01-19T05:28:48.699Z,99000.38
2023-01-19T05:31:52.792Z,99008.13
2023-01-19T05:34:55.505Z,99009.31
2023-01-19T05:37:58.268Z,99014.78
2023-01-19T05:41:00.914Z,99014.38
2023-01-19T05:44:03.722Z,99014.00
2023-01-19T05:47:07.732Z,99015.19
2023-01-19T05:50:11.204Z,99023.66
2023-01-19T05:53:13.902Z,99033.34
2023-01-19T05:56:16.762Z,99033.72
2023-01-19T05:59:24.141Z,99033.72
2023-01-19T06:02:30.207Z,99048.78
2023-01-19T06:05:32.916Z,99058.81
2023-01-19T06:08:36.031Z,99062.28
2023-01-19T06:11:38.704Z,99069.63
2023-01-19T06:14:41.417Z,99075.78
2023-01-19T06:17:45.665Z,99079.63
2023-01-19T06:20:48.914Z,99088.16
2023-01-19T06:23:51.668Z,99097.81
2023-01-19T06:26:54.919Z,99097.81
2023-01-19T06:29:57.602Z,99091.63
2023-01-19T06:33:03.195Z,99085.06
2023-01-19T06:36:06.450Z,99091.25
2023-01-19T06:39:09.724Z,99112.44
2023-01-19T06:42:12.415Z,99127.13
2023-01-19T06:45:15.351Z,99128.25
2023-01-19T06:48:19.770Z,99125.53
2023-01-19T06:51:23.229Z,99126.69
2023-01-19T06:54:27.194Z,99128.53
2023-01-19T06:57:30.037Z,99140.19
2023-01-19T07:00:32.769Z,99140.19
2023-01-19T07:03:38.045Z,99145.56
2023-01-19T07:06:41.650Z,99155.53
2023-01-19T07:09:44.396Z,99152.09
2023-01-19T07:12:47.550Z,99163.28
2023-01-19T07:15:50.609Z,99170.94
2023-01-19T07:18:55.315Z,99162.78
2023-01-19T07:21:58.355Z,99165.47
2023-01-19T07:25:01.805Z,99170.91
2023-01-19T07:28:04.789Z,99167.44
2023-01-19T07:31:08.994Z,99158.13
2023-01-19T07:34:13.564Z,99168.13
2023-01-19T07:37:37.598Z,99176.47
2023-01-19T07:40:40.301Z,99182.63
2023-01-19T07:43:43.190Z,99180.28
2023-01-19T07:46:46.029Z,99181.50
2023-01-19T07:49:50.390Z,99185.38
2023-01-19T07:52:53.671Z,99187.28
2023-01-19T07:55:57.131Z,99192.59
2023-01-19T07:58:59.874Z,99196.16
2023-01-19T08:02:02.654Z,99195.72
2023-01-19T08:05:07.338Z,99196.09
2023-01-19T08:08:11.551Z,99191.50
2023-01-19T08:11:15.268Z,99188.00
2023-01-19T08:14:18.157Z,99184.97
2023-01-19T08:17:23.726Z,99185.75
2023-01-19T08:20:29.633Z,99182.56
2023-01-19T08:23:32.364Z,99177.25
2023-01-19T08:26:36.011Z,99168.03
2023-01-19T08:29:39.045Z,99172.16
2023-01-19T08:32:42.643Z,99192.63
2023-01-19T08:35:51.199Z,99197.94
2023-01-19T08:38:54.033Z,99207.97
2023-01-19T08:41:58.203Z,99213.00
2023-01-19T08:45:01.342Z,99206.84
2023-01-19T08:48:06.384Z,99198.88
2023-01-19T08:51:10.822Z,99207.66
2023-01-19T08:54:15.074Z,99201.50
2023-01-19T08:57:17.793Z,99200.28
2023-01-19T09:00:22.175Z,99213.00
2023-01-19T09:03:24.970Z,99211.06
2023-01-19T09:06:29.270Z,99181.94
2023-01-19T09:09:31.992Z,99174.19
2023-01-19T09:12:34.664Z,99169.97
2023-01-19T09:15:38.569Z,99169.44
2023-01-19T09:18:41.935Z,99187.63
2023-01-19T09:21:46.234Z,99204.31
2023-01-19T09:24:51.803Z,99205.91
2023-01-19T09:28:16.110Z,99219.53
2023-01-19T09:31:19.032Z,99243.38
2023-01-19T09:34:23.194Z,99240.72
2023-01-19T09:37:28.592Z,99249.88
2023-01-19T09:40:32.070Z,99264.47
2023-01-19T09:43:41.999Z,99251.72
2023-01-19T09:46:45.051Z,99241.28
2023-01-19T09:49:50.863Z,99227.72
2023-01-19T09:53:01.547Z,99226.28
2023-01-19T09:56:04.944Z,99258.25
2023-01-19T09:59:26.220Z,99262.34
2023-01-19T10:02:36.422Z,99255.72
2023-01-19T10:05:44.806Z,99252.25
2023-01-19T10:09:00.920Z,99250.31
2023-01-19T10:12:12.587Z,99243.38
2023-01-19T10:15:23.711Z,99234.63
2023-01-19T10:18:35.757Z,99224.28
2023-01-19T10:21:43.359Z,99233.53
2023-01-19T10:24:52.363Z,99236.59
2023-01-19T10:27:55.258Z,99233.47
2023-01-19T10:30:58.118Z,99228.78
2023-01-19T10:34:02.295Z,99211.22
2023-01-19T10:37:15.826Z,99217.56
2023-01-19T10:40:28.772Z,99211.34
2023-01-19T10:43:41.564Z,99216.03
2023-01-19T10:46:48.664Z,99216.78
2023-01-19T10:49:52.261Z,99220.63
2023-01-19T10:52:57.460Z,99215.13
2023-01-19T10:56:14.738Z,99200.16
2023-01-19T10:59:31.772Z,99220.34
2023-01-19T11:02:34.947Z,99221.09
2023-01-19T11:05:42.106Z,99220.25
2023-01-19T11:08:46.180Z,99236.47
2023-01-19T11:11:52.747Z,99231.91
2023-01-19T11:14:58.037Z,99227.66
2023-01-19T11:18:02.795Z,99231.53
2023-01-19T11:21:08.271Z,99235.41
2023-01-19T11:24:14.840Z,99246.50
2023-01-19T11:27:20.851Z,99250.66
2023-01-19T11:30:26.406Z,99248.72
2023-01-19T11:33:35.402Z,99244.38
2023-01-19T11:36:38.144Z,99249.81
2023-01-19T11:39:47.196Z,99259.88
2023-01-19T11:42:51.377Z,99258.16
2023-01-19T11:45:56.028Z,99281.63
2023-01-19T11:49:03.283Z,99286.25
2023-01-19T11:52:16.396Z,99294.19
2023-01-19T11:55:24.467Z,99291.03
2023-01-19T11:58:30.522Z,99298.69
2023-01-19T12:01:47.813Z,99307.53
2023-01-19T12:04:54.472Z,99311.06
2023-01-19T12:08:00.802Z,99331.78
2023-01-19T12:11:06.055Z,99334.00
2023-01-19T12:14:17.561Z,99353.34
2023-01-19T12:17:25.131Z,99364.94
2023-01-19T12:20:31.821Z,99364.84
2023-01-19T12:23:51.894Z,99357.16
2023-01-19T12:26:57.357Z,99361.38
2023-01-19T12:30:02.428Z,99357.91
2023-01-19T12:33:22.038Z,99356.00
2023-01-19T12:36:38.890Z,99362.22
2023-01-19T12:39:48.679Z,99369.56
2023-01-19T12:43:00.798Z,99368.50
2023-01-19T12:46:19.317Z,99365.38
2023-01-19T12:49:27.219Z,99358.53
2023-01-19T12:52:34.313Z,99377.41
2023-01-19T12:55:39.047Z,99385.50
2023-01-19T12:58:50.689Z,99397.88
2023-01-19T13:02:35.955Z,99400.13
2023-01-19T13:06:01.160Z,99401.63
2023-01-19T13:09:04.071Z,99412.38
2023-01-19T13:12:24.696Z,99423.06
2023-01-19T13:15:34.084Z,99423.34
2023-01-19T13:18:41.694Z,99450.78
2023-01-19T13:21:47.833Z,99448.06
2023-01-19T13:25:08.158Z,99453.94
2023-01-19T13:28:37.936Z,99465.75
2023-01-19T13:31:44.762Z,99462.47
2023-01-19T13:34:52.587Z,99482.13
2023-01-19T13:37:59.176Z,99502.78
2023-01-19T13:41:03.049Z,99497.63
2023-01-19T13:44:13.083Z,99510.19
2023-01-19T13:47:22.382Z,99521.69
2023-01-19T13:50:27.899Z,99525.66
2023-01-19T13:53:37.003Z,99516.81
2023-01-19T13:56:42.084Z,99532.25
2023-01-19T14:00:15.555Z,99533.44
2023-01-19T14:03:55.752Z,99532.66
2023-01-19T14:07:48.865Z,99553.22
2023-01-19T14:11:14.835Z,99520.22
2023-01-19T14:14:27.651Z,99554.47
2023-01-19T14:17:51.668Z,99580.72
2023-01-19T14:21:01.203Z,99574.22
2023-01-19T14:24:10.286Z,99575.13
2023-01-19T14:27:21.645Z,99580.31
2023-01-19T14:30:26.022Z,99577.63
2023-01-19T14:34:22.273Z,99559.56
2023-01-19T14:37:27.177Z,99607.78
2023-01-19T14:40:30.282Z,99601.34
2023-01-19T14:43:34.480Z,99627.56
2023-01-19T14:46:38.734Z,99636.53
2023-01-19T14:49:46.908Z,99652.66
2023-01-19T14:52:54.565Z,99664.53
2023-01-19T14:56:00.628Z,99679.63
2023-01-19T14:59:10.694Z,99674.66
2023-01-19T15:02:14.133Z,99671.06
2023-01-19T15:05:17.164Z,99668.22
2023-01-19T15:08:27.474Z,99678.31
2023-01-19T15:11:32.599Z,99677.56
2023-01-19T15:14:36.700Z,99678.66
2023-01-19T15:17:39.373Z,99678.25
2023-01-19T15:20:42.281Z,99684.16
2023-01-19T15:23:45.222Z,99680.09
2023-01-19T15:26:47.933Z,99684.31
2023-01-19T15:29:52.008Z,99679.38
2023-01-19T15:32:54.658Z,99691.69
2023-01-19T15:35:57.468Z,99698.19
2023-01-19T15:39:00.423Z,99695.84
2023-01-19T15:42:03.419Z,99702.97
2023-01-19T15:45:30.712Z,99710.59
2023-01-19T15:48:33.603Z,99727.88
2023-01-19T15:51:36.293Z,99732.69
2023-01-19T15:54:39.007Z,99727.78
2023-01-19T15:57:41.743Z,99735.56
2023-01-19T16:00:46.288Z,99729.75
2023-01-19T16:03:49.621Z,99727.41
2023-01-19T16:06:52.251Z,99743.34
2023-01-19T16:09:54.987Z,99743.00
2023-01-19T16:12:57.772Z,99750.22
2023-01-19T16:16:06.427Z,99753.00
2023-01-19T16:19:09.048Z,99763.28
2023-01-19T16:22:12.235Z,99761.91
2023-01-19T16:25:14.930Z,99770.31
2023-01-19T16:28:17.637Z,99768.41
2023-01-19T16:31:21.646Z,99772.22
2023-01-19T16:34:25.392Z,99779.31
2023-01-19T16:37:28.337Z,99784.97
2023-01-19T16:40:31.203Z,99789.63
2023-01-19T16:43:33.844Z,99824.03
2023-01-19T16:46:39.767Z,99815.53
2023-01-19T16:49:42.658Z,99835.31
2023-01-19T16:52:45.805Z,99836.94
2023-01-19T16:55:48.726Z,99841.28
2023-01-19T16:58:53.774Z,99846.66
2023-01-19T17:01:58.114Z,99861.13
2023-01-19T17:05:00.831Z,99872.41
2023-01-19T17:08:03.542Z,99884.19
2023-01-19T17:11:09.821Z,99884.78
2023-01-19T17:14:14.580Z,99883.00
2023-01-19T17:17:18.912Z,99882.72
2023-01-19T17:20:21.769Z,99875.78
2023-01-19T17:23:24.396Z,99884.53
2023-01-19T17:26:28.440Z,99888.34
2023-01-19T17:29:32.150Z,99889.91
2023-01-19T17:32:36.417Z,99897.19
2023-01-19T17:35:39.423Z,99902.72
2023-01-19T17:38:42.542Z,99895.84
2023-01-19T17:41:45.296Z,99905.31
2023-01-19T17:44:47.886Z,99914.34
2023-01-19T17:47:51.919Z,99917.03
2023-01-19T17:50:55.653Z,99920.13
2023-01-19T17:53:59.430Z,99920.84
2023-01-19T17:57:02.493Z,99928.09
2023-01-19T18:00:07.376Z,99944.47
2023-01-19T18:03:16.489Z,99943.69
2023-01-19T18:06:20.278Z,99940.22
2023-01-19T18:09:23.103Z,99936.97
2023-01-19T18:12:26.171Z,99929.38
2023-01-19T18:15:29.530Z,99927.81
2023-01-19T18:18:37.271Z,99928.91
2023-01-19T18:21:40.456Z,99930.50
2023-01-19T18:24:44.446Z,99922.09
2023-01-19T18:27:47.509Z,99915.16
2023-01-19T18:30:50.613Z,99928.25
2023-01-19T18:33:55.155Z,99935.78
2023-01-19T18:36:58.037Z,99924.94
2023-01-19T18:40:04.301Z,99931.88
2023-01-19T18:43:08.150Z,99934.19
2023-01-19T18:46:11.549Z,99929.19
2023-01-19T18:49:16.595Z,99934.28
2023-01-19T18:52:20.764Z,99939.75
2023-01-19T18:55:24.183Z,99952.44
2023-01-19T18:58:29.201Z,99944.59
2023-01-19T19:01:35.129Z,99957.25
2023-01-19T19:04:40.067Z,99963.16
2023-01-19T19:07:43.112Z,99964.41
2023-01-19T19:10:46.235Z,99967.19
2023-01-19T19:13:52.058Z,99970.09
2023-01-19T19:16:54.708Z,99979.19
2023-01-19T19:19:58.997Z,99985.88
2023-01-19T19:23:01.966Z,99979.84
2023-01-19T19:26:06.637Z,99992.59
2023-01-19T19:29:09.719Z,100006.81
2023-01-19T19:32:12.801Z,100008.28
2023-01-19T19:35:19.509Z,100017.00
2023-01-19T19:38:22.423Z,100023.81
2023-01-19T19:41:27.171Z,100022.41
2023-01-19T19:44:30.237Z,100034.28
2023-01-19T19:47:33.926Z,100043.00
2023-01-19T19:50:37.918Z,100047.59
2023-01-19T19:53:41.166Z,100040.66
2023-01-19T19:56:44.504Z,100045.88
2023-01-19T19:59:47.729Z,100041.41
2023-01-19T20:02:50.999Z,100014.69
2023-01-19T20:05:55.133Z,100018.81
2023-01-19T20:08:58.041Z,100016.13
2023-01-19T20:12:01.232Z,100009.75
2023-01-19T20:15:04.368Z,99998.56
2023-01-19T20:18:07.721Z,100007.84
2023-01-19T20:21:14.034Z,100008.28
2023-01-19T20:24:19.860Z,100036.72
2023-01-19T20:27:22.830Z,100055.28
2023-01-19T20:30:26.732Z,100044.22
2023-01-19T20:33:29.663Z,100043.84
2023-01-19T20:36:34.292Z,100063.34
2023-01-19T20:39:37.516Z,100079.22
2023-01-19T20:42:41.373Z,100077.41
2023-01-19T20:45:45.203Z,100075.41
2023-01-19T20:48:52.910Z,100094.53
2023-01-19T20:51:57.770Z,100112.31
2023-01-19T20:55:00.762Z,100101.28
2023-01-19T20:58:03.629Z,100102.91
2023-01-19T21:01:11.474Z,100098.13
2023-01-19T21:04:15.223Z,100099.56
2023-01-19T21:07:19.238Z,100105.41
2023-01-19T21:10:22.219Z,100104.97
2023-01-19T21:13:25.154Z,100108.66
2023-01-19T21:16:30.333Z,100118.59
2023-01-19T21:19:32.982Z,100118.59
2023-01-19T21:22:37.097Z,100103.75
2023-01-19T21:25:39.869Z,100103.59
2023-01-19T21:28:42.750Z,100116.72
2023-01-19T21:31:45.929Z,100124.66
2023-01-19T21:34:48.780Z,100129.13
2023-01-19T21:37:52.811Z,100130.69
2023-01-19T21:40:56.550Z,100123.75
2023-01-19T21:44:00.495Z,100130.13
2023-01-19T21:47:06.674Z,100132.25
2023-01-19T21:50:11.079Z,100136.63
2023-01-19T21:53:15.190Z,100139.88
2023-01-19T21:56:18.487Z,100133.50
2023-01-19T21:59:22.228Z,100122.28
2023-01-19T22:02:37.968Z,100101.94
2023-01-19T22:05:41.501Z,100093.91
2023-01-19T22:08:46.549Z,100082.50
2023-01-19T22:11:49.540Z,100080.94
2023-01-19T22:14:52.224Z,100072.53
2023-01-19T22:17:54.806Z,100071.63
2023-01-19T22:21:07.585Z,100060.00
2023-01-19T22:24:12.911Z,100068.06
2023-01-19T22:27:15.673Z,100069.28
2023-01-19T22:30:18.933Z,100056.97
2023-01-19T22:33:21.674Z,100054.41
2023-01-19T22:36:25.864Z,100037.38
2023-01-19T22:39:29.950Z,100032.91
2023-01-19T22:42:32.547Z,100045.56
2023-01-19T22:45:35.528Z,100053.06
2023-01-19T22:48:38.348Z,100051.59
2023-01-19T22:51:41.415Z,100068.38
2023-01-19T22:54:45.390Z,100077.53
2023-01-19T22:57:48.081Z,100080.34
2023-01-19T23:00:50.849Z,100076.19
2023-01-19T23:03:54.282Z,100075.56
2023-01-19T23:06:56.909Z,100070.06
2023-01-19T23:10:00.906Z,100072.53
2023-01-19T23:13:03.835Z,100070.16
2023-01-19T23:16:07.511Z,100055.19
2023-01-19T23:19:12.169Z,100069.91
2023-01-19T23:22:14.791Z,100061.97
2023-01-19T23:25:18.805Z,100053.47
2023-01-19T23:28:21.445Z,100053.69
2023-01-19T23:31:26.424Z,100050.78
2023-01-19T23:34:29.121Z,100036.16
2023-01-19T23:37:31.732Z,100029.97
2023-01-19T23:40:35.780Z,100034.94
2023-01-19T23:43:38.749Z,100031.22
2023-01-19T23:46:41.397Z,100038.97
2023-01-19T23:49:44.305Z,100032.59
2023-01-19T23:52:47.030Z,100035.28
2023-01-19T23:55:51.049Z,100034.69
2023-01-19T23:58:55.726Z,100038.88
